createdAt,value
2017-12-03T00:00:29.513Z,-0.3
2017-12-03T00:01:51.810Z,-0.3
2017-12-03T00:03:16.588Z,-0.4
2017-12-03T00:04:36.350Z,-0.4
2017-12-03T00:06:01.148Z,-0.4
2017-12-03T00:07:20.874Z,-0.5
2017-12-03T00:08:40.591Z,-0.5
2017-12-03T00:10:00.298Z,-0.5
2017-12-03T00:11:22.624Z,-0.5
2017-12-03T00:12:52.498Z,-0.6
2017-12-03T00:14:17.290Z,-0.6
2017-12-03T00:15:37.058Z,-0.5
2017-12-03T00:16:59.338Z,-0.6
2017-12-03T00:18:21.617Z,-0.5
2017-12-03T00:19:43.869Z,-0.6
2017-12-03T00:21:03.607Z,-0.6
2017-12-03T00:22:23.353Z,-0.6
2017-12-03T00:23:43.123Z,-0.6
2017-12-03T00:25:20.549Z,-0.6
2017-12-03T00:26:42.812Z,-0.6
2017-12-03T00:28:05.109Z,-0.5
2017-12-03T00:29:34.945Z,-0.5
2017-12-03T00:30:54.670Z,-0.6
2017-12-03T00:32:16.930Z,-0.6
2017-12-03T00:33:36.683Z,-0.5
2017-12-03T00:34:56.400Z,-0.6
2017-12-03T00:36:16.118Z,-0.6
2017-12-03T00:37:35.832Z,-0.6
2017-12-03T00:38:55.551Z,-0.7
2017-12-03T00:40:20.346Z,-0.6
2017-12-03T00:41:42.630Z,-0.6
2017-12-03T00:43:02.365Z,-0.6
2017-12-03T00:44:24.627Z,-0.6
2017-12-03T00:45:44.385Z,-0.5
2017-12-03T00:47:04.098Z,-0.6
2017-12-03T00:48:23.819Z,-0.6
2017-12-03T00:49:43.529Z,-0.5
2017-12-03T00:51:13.412Z,-0.5
2017-12-03T00:52:33.158Z,-0.5
2017-12-03T00:53:55.404Z,-0.5
2017-12-03T00:55:15.110Z,-0.5
2017-12-03T00:56:34.824Z,-0.5
2017-12-03T00:57:59.584Z,-0.5
2017-12-03T00:59:19.351Z,-0.6
2017-12-03T01:00:41.591Z,-0.5
2017-12-03T01:02:01.329Z,-0.5
2017-12-03T01:03:23.593Z,-0.5
2017-12-03T01:04:48.376Z,-0.5
2017-12-03T01:06:23.283Z,-0.5
2017-12-03T01:07:43.042Z,-0.5
2017-12-03T01:09:02.779Z,-0.5
2017-12-03T01:10:27.626Z,-0.4
2017-12-03T01:11:47.367Z,-0.4
2017-12-03T01:13:09.638Z,-0.4
2017-12-03T01:14:29.377Z,-0.4
2017-12-03T01:15:54.173Z,-0.3
2017-12-03T01:17:13.897Z,-0.3
2017-12-03T01:18:33.624Z,-0.3
2017-12-03T01:19:55.886Z,-0.3
2017-12-03T01:21:15.592Z,-0.3
2017-12-03T01:22:42.918Z,-0.3
2017-12-03T01:24:02.730Z,-0.3
2017-12-03T01:25:22.481Z,-0.3
2017-12-03T01:26:44.725Z,-0.4
2017-12-03T01:28:12.018Z,-0.3
2017-12-03T01:29:31.743Z,-0.3
2017-12-03T01:30:56.532Z,-0.3
2017-12-03T01:32:18.771Z,-0.2
2017-12-03T01:33:38.530Z,-0.2
2017-12-03T01:35:03.309Z,-0.3
2017-12-03T01:36:23.023Z,-0.3
2017-12-03T01:37:42.795Z,-0.3
2017-12-03T01:39:02.552Z,-0.4
2017-12-03T01:40:24.870Z,-0.5
2017-12-03T01:41:44.572Z,-0.5
2017-12-03T01:43:14.421Z,-0.5
2017-12-03T01:44:49.317Z,-0.6
2017-12-03T01:46:09.068Z,-0.6
2017-12-03T01:47:28.783Z,-0.7
2017-12-03T01:48:51.067Z,-0.7
2017-12-03T01:50:10.786Z,-0.7
2017-12-03T01:51:35.575Z,-0.7
2017-12-03T01:52:55.284Z,-0.7
2017-12-03T01:54:17.593Z,-0.6
2017-12-03T01:55:37.347Z,-0.5
2017-12-03T01:56:57.135Z,-0.5
2017-12-03T01:58:29.516Z,-0.6
2017-12-03T01:59:49.278Z,-0.6
2017-12-03T02:01:08.992Z,-0.6
2017-12-03T02:02:36.318Z,-0.6
2017-12-03T02:04:06.160Z,-0.6
2017-12-03T02:05:25.882Z,-0.6
2017-12-03T02:06:45.590Z,-0.7
2017-12-03T02:08:18.009Z,-0.7
2017-12-03T02:09:40.242Z,-0.7
2017-12-03T02:11:02.523Z,-0.6
2017-12-03T02:12:22.268Z,-0.7
2017-12-03T02:13:44.591Z,-0.7
2017-12-03T02:15:06.846Z,-0.7
2017-12-03T02:16:26.616Z,-0.6
2017-12-03T02:17:46.324Z,-0.6
2017-12-03T02:19:08.591Z,-0.5
2017-12-03T02:20:30.849Z,-0.5
2017-12-03T02:21:53.099Z,-0.5
2017-12-03T02:23:12.827Z,-0.5
2017-12-03T02:24:35.081Z,-0.5
2017-12-03T02:25:54.842Z,-0.5
2017-12-03T02:27:17.158Z,-0.5
2017-12-03T02:28:39.444Z,-0.4
2017-12-03T02:29:59.212Z,-0.3
2017-12-03T02:31:18.923Z,-0.3
2017-12-03T02:32:41.201Z,-0.4
2017-12-03T02:34:05.982Z,-0.4
2017-12-03T02:35:25.707Z,-0.4
2017-12-03T02:36:48.004Z,-0.4
2017-12-03T02:38:07.731Z,-0.4
2017-12-03T02:39:27.466Z,-0.4
2017-12-03T02:40:49.756Z,-0.4
2017-12-03T02:42:09.482Z,-0.4
2017-12-03T02:43:29.188Z,-0.5
2017-12-03T02:44:53.954Z,-0.5
2017-12-03T02:46:13.678Z,-0.5
2017-12-03T02:47:33.392Z,-0.5
2017-12-03T02:48:58.191Z,-0.5
2017-12-03T02:50:30.587Z,-0.6
2017-12-03T02:51:50.317Z,-0.6
2017-12-03T02:53:10.028Z,-0.5
2017-12-03T02:54:39.912Z,-0.5
2017-12-03T02:56:02.177Z,-0.4
2017-12-03T02:57:21.921Z,-0.4
2017-12-03T02:58:41.638Z,-0.4
2017-12-03T03:00:03.940Z,-0.5
2017-12-03T03:01:23.697Z,-0.5
2017-12-03T03:02:53.552Z,-0.5
2017-12-03T03:04:13.254Z,-0.6
2017-12-03T03:05:33.016Z,-0.6
2017-12-03T03:06:57.822Z,-0.7
2017-12-03T03:08:17.571Z,-0.7
2017-12-03T03:09:37.317Z,-0.8
2017-12-03T03:10:57.062Z,-0.8
2017-12-03T03:12:16.857Z,-0.7
2017-12-03T03:13:36.593Z,-0.7
2017-12-03T03:15:06.522Z,-0.6
2017-12-03T03:16:28.834Z,-0.7
2017-12-03T03:17:53.590Z,-0.7
2017-12-03T03:19:23.457Z,-0.7
2017-12-03T03:20:43.161Z,-0.8
2017-12-03T03:22:05.411Z,-0.9
2017-12-03T03:23:25.176Z,-1
2017-12-03T03:24:47.465Z,-1
2017-12-03T03:26:14.808Z,-1.1
2017-12-03T03:27:52.347Z,-1.3
2017-12-03T03:29:12.119Z,-1.5
2017-12-03T03:30:31.908Z,-1.7
2017-12-03T03:31:54.151Z,-1.9
2017-12-03T03:33:13.856Z,-2
2017-12-03T03:34:36.110Z,-2
2017-12-03T03:35:55.867Z,-2.2
2017-12-03T03:37:15.594Z,-2.3
2017-12-03T03:38:37.829Z,-2.4
2017-12-03T03:39:57.582Z,-2.4
2017-12-03T03:41:17.341Z,-2.5
2017-12-03T03:42:37.080Z,-2.5
2017-12-03T03:43:59.316Z,-2.6
2017-12-03T03:45:19.072Z,-2.7
2017-12-03T03:46:38.785Z,-2.7
2017-12-03T03:47:58.534Z,-2.8
2017-12-03T03:49:18.243Z,-2.8
2017-12-03T03:50:43.022Z,-2.9
2017-12-03T03:52:12.942Z,-2.9
2017-12-03T03:53:32.720Z,-3
2017-12-03T03:54:52.437Z,-2.9
2017-12-03T03:56:14.706Z,-2.9
2017-12-03T03:57:34.429Z,-2.8
2017-12-03T03:58:56.748Z,-2.9
2017-12-03T04:00:18.992Z,-2.9
2017-12-03T04:01:38.698Z,-3
2017-12-03T04:02:58.433Z,-3.1
2017-12-03T04:04:20.728Z,-3
2017-12-03T04:05:40.483Z,-3.1
2017-12-03T04:07:00.247Z,-3.1
2017-12-03T04:08:25.034Z,-3.1
2017-12-03T04:09:47.314Z,-3.2
2017-12-03T04:11:07.073Z,-3.2
2017-12-03T04:12:31.885Z,-3.3
2017-12-03T04:13:51.685Z,-3.3
2017-12-03T04:15:11.396Z,-3.3
2017-12-03T04:16:46.315Z,-3.4
2017-12-03T04:18:11.154Z,-3.4
2017-12-03T04:19:30.879Z,-3.4
2017-12-03T04:20:55.680Z,-3.5
2017-12-03T04:22:15.391Z,-3.4
2017-12-03T04:23:37.683Z,-3.5
2017-12-03T04:24:57.415Z,-3.4
2017-12-03T04:26:17.167Z,-3.4
2017-12-03T04:27:39.413Z,-3.4
2017-12-03T04:28:59.117Z,-3.4
2017-12-03T04:30:18.851Z,-3.4
2017-12-03T04:31:38.604Z,-3.5
2017-12-03T04:33:00.883Z,-3.6
2017-12-03T04:34:20.637Z,-3.6
2017-12-03T04:35:40.357Z,-3.7
2017-12-03T04:37:00.067Z,-3.6
2017-12-03T04:38:24.835Z,-3.6
2017-12-03T04:39:44.537Z,-3.5
2017-12-03T04:41:04.309Z,-3.5
2017-12-03T04:42:24.029Z,-3.5
2017-12-03T04:43:48.788Z,-3.5
2017-12-03T04:45:08.497Z,-3.6
2017-12-03T04:46:30.758Z,-3.5
2017-12-03T04:48:00.624Z,-3.5
2017-12-03T04:49:30.531Z,-3.6
2017-12-03T04:50:50.256Z,-3.6
2017-12-03T04:52:09.972Z,-3.6
2017-12-03T04:53:29.737Z,-3.6
2017-12-03T04:54:49.472Z,-3.6
2017-12-03T04:56:11.757Z,-3.6
2017-12-03T04:57:31.558Z,-3.7
2017-12-03T04:59:01.428Z,-3.7
2017-12-03T05:00:21.206Z,-3.7
2017-12-03T05:01:43.473Z,-3.7
2017-12-03T05:03:05.732Z,-3.7
2017-12-03T05:04:25.497Z,-3.6
2017-12-03T05:05:47.739Z,-3.6
2017-12-03T05:07:07.449Z,-3.7
2017-12-03T05:08:27.164Z,-3.7
2017-12-03T05:09:49.433Z,-3.7
2017-12-03T05:11:09.204Z,-3.8
2017-12-03T05:12:28.945Z,-3.8
2017-12-03T05:13:48.671Z,-3.9
2017-12-03T05:15:13.459Z,-3.9
2017-12-03T05:16:35.732Z,-3.9
2017-12-03T05:17:55.463Z,-3.9
2017-12-03T05:19:15.237Z,-3.7
2017-12-03T05:20:34.946Z,-3.8
2017-12-03T05:21:57.240Z,-3.8
2017-12-03T05:23:19.510Z,-3.6
2017-12-03T05:24:46.873Z,-3.6
2017-12-03T05:26:06.662Z,-3.7
2017-12-03T05:27:26.399Z,-3.6
2017-12-03T05:28:46.188Z,-3.6
2017-12-03T05:30:05.921Z,-3.7
2017-12-03T05:31:25.676Z,-3.6
2017-12-03T05:32:45.396Z,-3.4
2017-12-03T05:34:07.696Z,-3.4
2017-12-03T05:35:27.404Z,-3.5
2017-12-03T05:36:47.119Z,-3.6
2017-12-03T05:38:09.346Z,-3.5
2017-12-03T05:39:29.057Z,-3.6
2017-12-03T05:40:53.842Z,-3.6
2017-12-03T05:42:13.566Z,-3.6
2017-12-03T05:43:33.268Z,-3.5
2017-12-03T05:44:53.030Z,-3.6
2017-12-03T05:46:15.270Z,-3.7
2017-12-03T05:47:34.976Z,-3.7
2017-12-03T05:48:57.212Z,-3.6
2017-12-03T05:50:16.938Z,-3.6
2017-12-03T05:51:36.694Z,-3.5
2017-12-03T05:52:58.933Z,-3.4
2017-12-03T05:54:23.727Z,-3.3
2017-12-03T05:55:43.432Z,-3.3
2017-12-03T05:57:03.160Z,-3.2
2017-12-03T05:58:22.910Z,-3
2017-12-03T05:59:47.712Z,-2.8
2017-12-03T06:01:09.970Z,-2.7
2017-12-03T06:02:29.737Z,-2.6
2017-12-03T06:03:59.569Z,-2.6
2017-12-03T06:05:19.276Z,-2.6
2017-12-03T06:06:38.996Z,-2.5
2017-12-03T06:08:01.339Z,-2.5
2017-12-03T06:09:21.067Z,-2.4
2017-12-03T06:10:45.845Z,-2.4
2017-12-03T06:12:10.683Z,-2.3
2017-12-03T06:13:30.233Z,-2.4
2017-12-03T06:14:49.950Z,-2.3
2017-12-03T06:16:09.684Z,-2.3
2017-12-03T06:17:31.960Z,-2.2
2017-12-03T06:18:51.772Z,-2.2
2017-12-03T06:20:11.515Z,-2.2
2017-12-03T06:21:33.757Z,-2.2
2017-12-03T06:22:53.462Z,-2.2
2017-12-03T06:24:18.238Z,-2.2
2017-12-03T06:25:38.008Z,-2.2
2017-12-03T06:26:57.735Z,-2.1
2017-12-03T06:28:25.106Z,-2.1
2017-12-03T06:29:47.366Z,-2.1
2017-12-03T06:31:07.107Z,-2
2017-12-03T06:32:26.870Z,-2
2017-12-03T06:33:51.669Z,-2
2017-12-03T06:35:21.567Z,-2
2017-12-03T06:36:41.397Z,-2
2017-12-03T06:38:01.160Z,-2
2017-12-03T06:39:25.976Z,-2
2017-12-03T06:40:45.700Z,-2
2017-12-03T06:42:05.463Z,-2
2017-12-03T06:43:25.185Z,-2
2017-12-03T06:44:47.430Z,-2
2017-12-03T06:46:07.149Z,-2
2017-12-03T06:47:29.400Z,-2
2017-12-03T06:48:49.109Z,-2
2017-12-03T06:50:11.399Z,-2
2017-12-03T06:51:31.150Z,-2
2017-12-03T06:52:50.890Z,-2
2017-12-03T06:54:18.207Z,-2
2017-12-03T06:55:37.965Z,-2
2017-12-03T06:56:57.696Z,-2
2017-12-03T06:58:19.946Z,-2
2017-12-03T06:59:44.723Z,-1.9
2017-12-03T07:01:06.974Z,-1.9
2017-12-03T07:02:26.734Z,-1.9
2017-12-03T07:03:46.485Z,-1.9
2017-12-03T07:05:21.465Z,-1.9
2017-12-03T07:06:43.715Z,-1.9
2017-12-03T07:08:03.470Z,-1.8
2017-12-03T07:09:23.180Z,-1.9
2017-12-03T07:10:45.421Z,-1.9
2017-12-03T07:12:05.147Z,-1.9
2017-12-03T07:13:24.875Z,-1.9
2017-12-03T07:14:44.593Z,-1.8
2017-12-03T07:16:09.358Z,-1.8
2017-12-03T07:17:31.602Z,-1.7
2017-12-03T07:18:51.380Z,-1.8
2017-12-03T07:20:11.129Z,-1.8
2017-12-03T07:21:30.862Z,-1.8
2017-12-03T07:22:50.609Z,-1.7
2017-12-03T07:24:10.366Z,-1.7
2017-12-03T07:25:35.129Z,-1.7
2017-12-03T07:27:04.981Z,-1.6
2017-12-03T07:28:27.248Z,-1.6
2017-12-03T07:29:52.089Z,-1.6
2017-12-03T07:31:11.792Z,-1.7
2017-12-03T07:32:31.534Z,-1.7
2017-12-03T07:33:51.280Z,-1.7
2017-12-03T07:35:18.601Z,-1.6
2017-12-03T07:36:38.316Z,-1.8
2017-12-03T07:38:05.677Z,-1.7
2017-12-03T07:39:25.386Z,-1.6
2017-12-03T07:40:45.114Z,-1.6
2017-12-03T07:42:04.842Z,-1.5
2017-12-03T07:43:29.669Z,-1.5
2017-12-03T07:44:49.381Z,-1.5
2017-12-03T07:46:11.638Z,-1.4
2017-12-03T07:47:31.392Z,-1.4
2017-12-03T07:48:51.137Z,-1.4
2017-12-03T07:50:13.410Z,-1.5
2017-12-03T07:51:33.170Z,-1.6
2017-12-03T07:52:57.973Z,-1.5
2017-12-03T07:54:17.680Z,-1.5
2017-12-03T07:55:39.924Z,-1.4
2017-12-03T07:57:07.244Z,-1.3
2017-12-03T07:58:26.982Z,-1.3
2017-12-03T07:59:46.697Z,-1.3
2017-12-03T08:01:08.943Z,-1.3
2017-12-03T08:02:28.659Z,-1.2
2017-12-03T08:03:50.966Z,-1.2
2017-12-03T08:05:13.254Z,-1.3
2017-12-03T08:06:38.038Z,-1.4
2017-12-03T08:07:57.796Z,-1.3
2017-12-03T08:09:17.499Z,-1.4
2017-12-03T08:10:37.263Z,-1.4
2017-12-03T08:12:02.035Z,-1.3
2017-12-03T08:13:29.361Z,-1.4
2017-12-03T08:14:49.061Z,-1.3
2017-12-03T08:16:11.322Z,-1.3
2017-12-03T08:17:31.135Z,-1.3
2017-12-03T08:18:55.933Z,-1.2
2017-12-03T08:20:15.716Z,-1.2
2017-12-03T08:21:40.563Z,-1.2
2017-12-03T08:23:05.334Z,-1.1
2017-12-03T08:24:25.105Z,-1.1
2017-12-03T08:25:52.466Z,-1.1
2017-12-03T08:27:14.764Z,-1.1
2017-12-03T08:28:37.022Z,-1
2017-12-03T08:29:56.741Z,-1
2017-12-03T08:31:19.012Z,-1.1
2017-12-03T08:32:46.323Z,-1.1
2017-12-03T08:34:08.577Z,-1.1
2017-12-03T08:35:30.862Z,-1.1
2017-12-03T08:36:50.658Z,-1.1
2017-12-03T08:38:12.910Z,-1
2017-12-03T08:39:37.674Z,-1
2017-12-03T08:40:57.396Z,-1
2017-12-03T08:42:24.693Z,-1.1
2017-12-03T08:43:46.941Z,-1.1
2017-12-03T08:45:09.185Z,-1.1
2017-12-03T08:46:28.970Z,-1
2017-12-03T08:47:51.223Z,-1
2017-12-03T08:49:16.021Z,-1
2017-12-03T08:50:43.350Z,-1
2017-12-03T08:52:03.074Z,-1.1
2017-12-03T08:53:27.936Z,-1.1
2017-12-03T08:54:50.203Z,-1.1
2017-12-03T08:56:12.471Z,-1
2017-12-03T08:57:34.738Z,-0.9
2017-12-03T08:58:54.511Z,-0.9
2017-12-03T09:00:24.357Z,-0.8
2017-12-03T09:01:46.648Z,-1
2017-12-03T09:03:13.991Z,-1.2
2017-12-03T09:04:33.709Z,-1.2
2017-12-03T09:05:53.419Z,-1.2
2017-12-03T09:07:15.748Z,-1.2
2017-12-03T09:08:38.036Z,-1.3
2017-12-03T09:09:57.790Z,-1.4
2017-12-03T09:11:17.490Z,-1.4
2017-12-03T09:12:39.728Z,-1.4
2017-12-03T09:13:59.464Z,-1.5
2017-12-03T09:15:19.230Z,-1.4
2017-12-03T09:16:38.935Z,-1.3
2017-12-03T09:17:58.655Z,-1.2
2017-12-03T09:19:18.393Z,-1.3
2017-12-03T09:20:38.096Z,-1.4
2017-12-03T09:21:57.818Z,-1.3
2017-12-03T09:23:17.562Z,-1.4
2017-12-03T09:24:37.343Z,-1.4
2017-12-03T09:25:57.111Z,-1.4
2017-12-03T09:27:16.847Z,-1.3
2017-12-03T09:28:39.096Z,-1.3
2017-12-03T09:30:01.334Z,-1.5
2017-12-03T09:31:21.072Z,-1.4
2017-12-03T09:32:43.300Z,-1.3
2017-12-03T09:34:03.063Z,-1.2
2017-12-03T09:35:22.780Z,-1.4
2017-12-03T09:36:42.543Z,-1.4
2017-12-03T09:38:02.284Z,-1.4
2017-12-03T09:39:27.062Z,-1.5
2017-12-03T09:40:46.839Z,-1.5
2017-12-03T09:42:09.127Z,-1.3
2017-12-03T09:43:28.832Z,-1.5
2017-12-03T09:44:51.077Z,-1.4
2017-12-03T09:46:10.867Z,-1.3
2017-12-03T09:47:30.664Z,-1.3
2017-12-03T09:48:57.973Z,-1.3
2017-12-03T09:50:20.242Z,-1.3
2017-12-03T09:51:42.515Z,-1.4
2017-12-03T09:53:02.273Z,-1.3
2017-12-03T09:54:27.049Z,-1.4
2017-12-03T09:55:51.832Z,-1.5
2017-12-03T09:57:19.196Z,-1.5
2017-12-03T09:58:43.998Z,-1.5
2017-12-03T10:00:03.711Z,-1.4
2017-12-03T10:01:23.410Z,-1.4
2017-12-03T10:02:43.179Z,-1.4
2017-12-03T10:04:02.890Z,-1.5
2017-12-03T10:05:25.175Z,-1.5
2017-12-03T10:06:47.418Z,-1.5
2017-12-03T10:08:07.190Z,-1.6
2017-12-03T10:09:26.907Z,-1.5
2017-12-03T10:10:46.625Z,-1.4
2017-12-03T10:12:06.352Z,-1.4
2017-12-03T10:13:26.124Z,-1.5
2017-12-03T10:14:45.845Z,-1.4
2017-12-03T10:16:08.077Z,-1.4
2017-12-03T10:17:27.790Z,-1.5
2017-12-03T10:18:55.158Z,-1.4
2017-12-03T10:20:14.916Z,-1.3
2017-12-03T10:21:44.794Z,-1.5
2017-12-03T10:23:07.109Z,-1.4
2017-12-03T10:24:29.361Z,-1.4
2017-12-03T10:25:51.601Z,-1.3
2017-12-03T10:27:11.310Z,-1.1
2017-12-03T10:28:33.596Z,-1.2
2017-12-03T10:29:58.386Z,-1.1
2017-12-03T10:31:18.086Z,-1.1
2017-12-03T10:32:45.489Z,-1
2017-12-03T10:34:05.220Z,-1.1
2017-12-03T10:35:27.477Z,-1.1
2017-12-03T10:36:47.211Z,-1.1
2017-12-03T10:38:06.942Z,-1.1
2017-12-03T10:39:26.644Z,-1.1
2017-12-03T10:40:48.927Z,-1.2
2017-12-03T10:42:08.759Z,-1.1
2017-12-03T10:43:28.498Z,-1
2017-12-03T10:44:48.262Z,-1
2017-12-03T10:46:07.973Z,-1.1
2017-12-03T10:47:27.748Z,-1.2
2017-12-03T10:48:47.460Z,-1.2
2017-12-03T10:50:07.176Z,-1.1
2017-12-03T10:51:29.427Z,-1.2
2017-12-03T10:52:51.678Z,-1.2
2017-12-03T10:54:16.465Z,-1.2
2017-12-03T10:55:46.348Z,-1.2
2017-12-03T10:57:06.099Z,-1.2
2017-12-03T10:58:25.829Z,-1.2
2017-12-03T10:59:48.115Z,-1.1
2017-12-03T11:01:07.816Z,-1
2017-12-03T11:02:27.550Z,-1
2017-12-03T11:03:49.804Z,-1
2017-12-03T11:05:09.565Z,-1.1
2017-12-03T11:06:29.316Z,-1
2017-12-03T11:07:59.165Z,-1
2017-12-03T11:09:26.475Z,-1.1
2017-12-03T11:10:46.206Z,-1.2
2017-12-03T11:12:05.933Z,-1.2
2017-12-03T11:13:25.652Z,-1.3
2017-12-03T11:14:45.396Z,-1.4
2017-12-03T11:16:05.140Z,-1.3
2017-12-03T11:17:29.952Z,-1.3
2017-12-03T11:18:49.750Z,-1.1
2017-12-03T11:20:09.451Z,-1.2
2017-12-03T11:21:29.165Z,-1.3
2017-12-03T11:22:48.871Z,-1.1
2017-12-03T11:24:08.597Z,-1.1
2017-12-03T11:25:28.308Z,-1.2
2017-12-03T11:26:48.022Z,-1.2
2017-12-03T11:28:10.336Z,-1.2
2017-12-03T11:29:30.129Z,-1
2017-12-03T11:30:49.882Z,-1.1
2017-12-03T11:32:12.108Z,-1.1
2017-12-03T11:33:41.960Z,-1
2017-12-03T11:35:09.311Z,-0.9
2017-12-03T11:36:29.012Z,-1
2017-12-03T11:37:48.761Z,-1.1
2017-12-03T11:39:08.457Z,-1.1
2017-12-03T11:40:30.763Z,-1.1
2017-12-03T11:42:00.621Z,-0.9
2017-12-03T11:43:25.442Z,-1
2017-12-03T11:44:55.333Z,-1.1
2017-12-03T11:46:22.642Z,-1
2017-12-03T11:47:44.916Z,-1
2017-12-03T11:49:17.318Z,-1
2017-12-03T11:50:37.060Z,-1.1
2017-12-03T11:51:56.782Z,-1
2017-12-03T11:53:19.063Z,-1
2017-12-03T11:54:43.827Z,-1
2017-12-03T11:56:03.579Z,-1
2017-12-03T11:57:33.500Z,-1
2017-12-03T11:59:03.341Z,-1
2017-12-03T12:00:25.646Z,-1
2017-12-03T12:01:55.515Z,-1.1
2017-12-03T12:03:15.313Z,-1.1
2017-12-03T12:04:35.055Z,-1.2
2017-12-03T12:05:59.871Z,-1.2
2017-12-03T12:07:27.172Z,-1.2
2017-12-03T12:08:46.929Z,-1.2
2017-12-03T12:10:11.692Z,-1.3
2017-12-03T12:11:33.935Z,-1.4
2017-12-03T12:12:58.704Z,-1.4
2017-12-03T12:14:20.999Z,-1.3
2017-12-03T12:15:43.275Z,-1.4
2017-12-03T12:17:03.048Z,-1.5
2017-12-03T12:18:22.801Z,-1.4
2017-12-03T12:19:42.560Z,-1.4
2017-12-03T12:21:02.278Z,-1.5
2017-12-03T12:22:21.979Z,-1.4
2017-12-03T12:23:46.739Z,-1.3
2017-12-03T12:25:06.443Z,-1.2
2017-12-03T12:26:26.148Z,-1.2
2017-12-03T12:27:45.894Z,-1.2
2017-12-03T12:29:08.135Z,-1.2
2017-12-03T12:30:27.854Z,-1.1
2017-12-03T12:31:47.572Z,-1.1
2017-12-03T12:33:07.282Z,-1
2017-12-03T12:34:26.996Z,-1.1
2017-12-03T12:35:49.253Z,-1.1
2017-12-03T12:37:09.035Z,-1.2
2017-12-03T12:38:28.750Z,-1.2
2017-12-03T12:39:51.044Z,-1.1
2017-12-03T12:41:10.800Z,-1.1
2017-12-03T12:42:40.621Z,-1.1
2017-12-03T12:44:02.895Z,-1.1
2017-12-03T12:45:35.262Z,-0.9
2017-12-03T12:46:57.510Z,-1
2017-12-03T12:48:17.217Z,-0.8
2017-12-03T12:49:47.087Z,-1
2017-12-03T12:51:06.817Z,-1
2017-12-03T12:52:26.557Z,-1
2017-12-03T12:53:48.833Z,-1.1
2017-12-03T12:55:08.547Z,-1
2017-12-03T12:56:33.359Z,-1
2017-12-03T12:58:00.728Z,-1
2017-12-03T12:59:20.422Z,-1.1
2017-12-03T13:00:47.725Z,-1.2
2017-12-03T13:02:07.464Z,-1.1
2017-12-03T13:03:27.195Z,-1
2017-12-03T13:04:54.567Z,-1
2017-12-03T13:06:14.350Z,-1
2017-12-03T13:07:36.639Z,-1
2017-12-03T13:08:56.374Z,-0.8
2017-12-03T13:10:16.092Z,-0.8
2017-12-03T13:11:38.366Z,-0.6
2017-12-03T13:13:00.604Z,-0.6
2017-12-03T13:14:22.917Z,-0.7
2017-12-03T13:15:50.207Z,-0.7
2017-12-03T13:17:12.500Z,-0.9
2017-12-03T13:18:42.358Z,-0.8
2017-12-03T13:20:07.160Z,-0.9
2017-12-03T13:21:29.440Z,-0.9
2017-12-03T13:22:56.761Z,-0.9
2017-12-03T13:24:19.003Z,-0.9
2017-12-03T13:25:48.899Z,-0.8
2017-12-03T13:27:11.145Z,-0.8
2017-12-03T13:28:33.387Z,-0.9
2017-12-03T13:29:53.151Z,-0.9
2017-12-03T13:31:15.404Z,-1
2017-12-03T13:32:35.126Z,-1
2017-12-03T13:33:54.869Z,-1
2017-12-03T13:35:14.620Z,-1.1
2017-12-03T13:36:34.349Z,-1
2017-12-03T13:37:56.585Z,-1
2017-12-03T13:39:18.842Z,-1.1
2017-12-03T13:40:38.576Z,-1
2017-12-03T13:42:08.429Z,-1.1
2017-12-03T13:43:28.156Z,-1.1
2017-12-03T13:44:47.922Z,-1.3
2017-12-03T13:46:12.746Z,-1.4
2017-12-03T13:47:35.020Z,-1.4
2017-12-03T13:48:57.280Z,-1.4
2017-12-03T13:50:17.054Z,-1.3
2017-12-03T13:51:49.499Z,-1.3
2017-12-03T13:53:09.288Z,-1.3
2017-12-03T13:54:31.572Z,-1.2
2017-12-03T13:55:53.815Z,-1.3
2017-12-03T13:57:13.517Z,-1.5
2017-12-03T13:58:33.278Z,-1.5
2017-12-03T14:00:08.169Z,-1.4
2017-12-03T14:01:27.905Z,-1.4
2017-12-03T14:02:50.148Z,-1.4
2017-12-03T14:04:09.894Z,-1.5
2017-12-03T14:05:32.133Z,-1.4
2017-12-03T14:06:51.835Z,-1.3
2017-12-03T14:08:14.170Z,-1.4
2017-12-03T14:09:38.965Z,-1.3
2017-12-03T14:11:03.736Z,-1.4
2017-12-03T14:12:25.973Z,-1.3
2017-12-03T14:13:48.213Z,-1.3
2017-12-03T14:15:15.552Z,-1.3
2017-12-03T14:16:35.281Z,-1.3
2017-12-03T14:17:57.523Z,-1.4
2017-12-03T14:19:17.264Z,-1.3
2017-12-03T14:20:39.540Z,-1.2
2017-12-03T14:22:04.387Z,-1.3
2017-12-03T14:23:24.141Z,-1.4
2017-12-03T14:24:56.501Z,-1.3
2017-12-03T14:26:16.229Z,-1.3
2017-12-03T14:27:35.975Z,-1.2
2017-12-03T14:28:55.724Z,-1.4
2017-12-03T14:30:17.972Z,-1.5
2017-12-03T14:31:42.746Z,-1.5
2017-12-03T14:33:02.481Z,-1.6
2017-12-03T14:34:27.288Z,-1.5
2017-12-03T14:35:49.552Z,-1.5
2017-12-03T14:37:19.420Z,-1.4
2017-12-03T14:38:39.147Z,-1.5
2017-12-03T14:40:03.996Z,-1.5
2017-12-03T14:41:23.708Z,-1.5
2017-12-03T14:42:48.562Z,-1.5
2017-12-03T14:44:18.415Z,-1.4
2017-12-03T14:45:40.697Z,-1.5
2017-12-03T14:47:05.466Z,-1.5
2017-12-03T14:48:30.242Z,-1.6
2017-12-03T14:49:52.500Z,-1.5
2017-12-03T14:51:14.796Z,-1.5
2017-12-03T14:52:37.063Z,-1.5
2017-12-03T14:53:56.803Z,-1.6
2017-12-03T14:55:16.518Z,-1.6
2017-12-03T14:56:41.285Z,-1.5
2017-12-03T14:58:00.993Z,-1.5
2017-12-03T14:59:20.766Z,-1.5
2017-12-03T15:00:40.527Z,-1.5
2017-12-03T15:02:00.245Z,-1.5
2017-12-03T15:03:27.539Z,-1.5
2017-12-03T15:04:49.837Z,-1.6
2017-12-03T15:06:09.596Z,-1.7
2017-12-03T15:07:29.398Z,-1.7
2017-12-03T15:08:54.203Z,-1.7
2017-12-03T15:10:13.945Z,-1.7
2017-12-03T15:11:56.498Z,-1.7
2017-12-03T15:13:26.337Z,-1.7
2017-12-03T15:14:46.110Z,-1.6
2017-12-03T15:16:13.419Z,-1.6
2017-12-03T15:17:33.162Z,-1.7
2017-12-03T15:18:52.876Z,-1.8
2017-12-03T15:20:12.588Z,-1.8
2017-12-03T15:21:37.418Z,-1.7
2017-12-03T15:22:57.159Z,-1.8
2017-12-03T15:24:16.869Z,-1.8
2017-12-03T15:25:36.588Z,-1.9
2017-12-03T15:26:56.322Z,-1.8
2017-12-03T15:28:16.043Z,-1.8
2017-12-03T15:29:35.823Z,-1.9
2017-12-03T15:30:55.581Z,-1.8
2017-12-03T15:32:15.329Z,-1.7
2017-12-03T15:33:37.627Z,-1.7
2017-12-03T15:34:57.331Z,-1.7
2017-12-03T15:36:19.584Z,-1.7
2017-12-03T15:37:39.386Z,-1.8
2017-12-03T15:38:59.140Z,-1.8
2017-12-03T15:40:23.956Z,-1.7
2017-12-03T15:41:43.687Z,-1.7
2017-12-03T15:43:03.459Z,-1.8
2017-12-03T15:44:23.243Z,-1.7
2017-12-03T15:45:42.978Z,-1.7
2017-12-03T15:47:02.688Z,-1.8
2017-12-03T15:48:22.402Z,-1.7
2017-12-03T15:49:42.145Z,-1.6
2017-12-03T15:51:04.404Z,-1.6
2017-12-03T15:52:24.152Z,-1.6
2017-12-03T15:53:46.405Z,-1.7
2017-12-03T15:55:21.305Z,-1.7
2017-12-03T15:56:43.581Z,-1.6
2017-12-03T15:58:03.287Z,-1.6
2017-12-03T15:59:23.031Z,-1.6
2017-12-03T16:00:52.870Z,-1.6
2017-12-03T16:02:15.108Z,-1.6
2017-12-03T16:03:44.967Z,-1.5
2017-12-03T16:05:04.690Z,-1.6
2017-12-03T16:06:34.511Z,-1.6
2017-12-03T16:07:54.257Z,-1.6
2017-12-03T16:09:14.067Z,-1.6
2017-12-03T16:10:36.333Z,-1.6
2017-12-03T16:11:56.054Z,-1.6
2017-12-03T16:13:15.785Z,-1.6
2017-12-03T16:14:35.513Z,-1.5
2017-12-03T16:15:55.245Z,-1.5
2017-12-03T16:17:25.121Z,-1.5
2017-12-03T16:18:44.837Z,-1.5
2017-12-03T16:20:12.207Z,-1.4
2017-12-03T16:21:31.961Z,-1.5
2017-12-03T16:22:54.241Z,-1.5
2017-12-03T16:24:19.054Z,-1.5
2017-12-03T16:25:41.286Z,-1.5
2017-12-03T16:27:06.073Z,-1.5
2017-12-03T16:28:33.397Z,-1.5
2017-12-03T16:29:58.169Z,-1.5
2017-12-03T16:31:20.432Z,-1.5
2017-12-03T16:32:40.158Z,-1.5
2017-12-03T16:34:02.414Z,-1.5
2017-12-03T16:35:27.219Z,-1.5
2017-12-03T16:36:46.966Z,-1.5
2017-12-03T16:38:06.675Z,-1.5
2017-12-03T16:39:26.404Z,-1.6
2017-12-03T16:40:48.671Z,-1.5
2017-12-03T16:42:08.412Z,-1.5
2017-12-03T16:43:35.768Z,-1.4
2017-12-03T16:44:55.474Z,-1.4
2017-12-03T16:46:20.258Z,-1.4
2017-12-03T16:47:45.054Z,-1.4
2017-12-03T16:49:04.800Z,-1.4
2017-12-03T16:50:24.552Z,-1.4
2017-12-03T16:51:51.849Z,-1.4
2017-12-03T16:53:11.609Z,-1.4
2017-12-03T16:54:31.367Z,-1.4
2017-12-03T16:55:51.069Z,-1.4
2017-12-03T16:57:10.764Z,-1.4
2017-12-03T16:58:30.464Z,-1.4
2017-12-03T16:59:52.721Z,-1.4
2017-12-03T17:01:14.963Z,-1.4
2017-12-03T17:02:34.741Z,-1.3
2017-12-03T17:03:56.996Z,-1.4
2017-12-03T17:05:21.814Z,-1.4
2017-12-03T17:06:41.584Z,-1.3
2017-12-03T17:08:03.854Z,-1.3
2017-12-03T17:09:23.646Z,-1.3
2017-12-03T17:10:45.926Z,-1.3
2017-12-03T17:12:08.155Z,-1.3
2017-12-03T17:13:27.911Z,-1.3
2017-12-03T17:14:50.212Z,-1.3
2017-12-03T17:16:09.940Z,-1.3
2017-12-03T17:17:32.173Z,-1.4
2017-12-03T17:19:02.005Z,-1.4
2017-12-03T17:20:21.776Z,-1.3
2017-12-03T17:21:41.539Z,-1.3
2017-12-03T17:23:03.846Z,-1.3
2017-12-03T17:24:23.619Z,-1.3
2017-12-03T17:25:43.416Z,-1.2
2017-12-03T17:27:13.338Z,-1.2
2017-12-03T17:28:40.626Z,-1.3
2017-12-03T17:30:00.380Z,-1.2
2017-12-03T17:31:22.645Z,-1.2
2017-12-03T17:32:42.379Z,-1.2
2017-12-03T17:34:04.620Z,-1.2
2017-12-03T17:35:24.335Z,-1.2
2017-12-03T17:36:44.100Z,-1.2
2017-12-03T17:38:14.015Z,-1.2
2017-12-03T17:39:33.790Z,-1.1
2017-12-03T17:41:01.110Z,-1.1
2017-12-03T17:42:20.842Z,-1.1
2017-12-03T17:43:43.155Z,-1
2017-12-03T17:45:12.986Z,-1
2017-12-03T17:46:32.757Z,-1
2017-12-03T17:48:07.686Z,-1
2017-12-03T17:49:27.424Z,-1
2017-12-03T17:50:47.141Z,-1
2017-12-03T17:52:06.885Z,-1
2017-12-03T17:53:29.180Z,-1
2017-12-03T17:54:51.431Z,-1
2017-12-03T17:56:21.268Z,-1
2017-12-03T17:57:43.609Z,-1
2017-12-03T17:59:10.913Z,-1
2017-12-03T18:00:30.700Z,-1
2017-12-03T18:01:50.420Z,-1.1
2017-12-03T18:03:10.172Z,-1.1
2017-12-03T18:04:29.916Z,-1.1
2017-12-03T18:05:49.683Z,-1.1
2017-12-03T18:07:11.931Z,-1
2017-12-03T18:08:44.305Z,-1
2017-12-03T18:10:04.028Z,-0.9
2017-12-03T18:11:23.814Z,-0.9
2017-12-03T18:12:46.072Z,-1
2017-12-03T18:14:08.351Z,-1.1
2017-12-03T18:15:28.130Z,-1.1
2017-12-03T18:16:47.869Z,-1.1
2017-12-03T18:18:10.184Z,-1
2017-12-03T18:19:32.426Z,-1
2017-12-03T18:20:54.759Z,-1
2017-12-03T18:22:14.474Z,-0.9